createdAt,value
2022-10-05T00:02:26.693Z,15.50
2022-10-05T00:04:56.207Z,15.50
2022-10-05T00:07:25.329Z,15.60
2022-10-05T00:09:59.403Z,15.50
2022-10-05T00:12:29.970Z,15.50
2022-10-05T00:15:00.873Z,15.60
2022-10-05T00:17:30.393Z,15.60
2022-10-05T00:20:19.164Z,15.60
2022-10-05T00:22:46.576Z,15.60
2022-10-05T00:25:17.944Z,15.60
2022-10-05T00:27:51.310Z,15.60
2022-10-05T00:30:21.173Z,15.60
2022-10-05T00:32:49.774Z,15.70
2022-10-05T00:35:18.251Z,15.70
2022-10-05T00:37:47.321Z,15.70
2022-10-05T00:41:07.987Z,15.80
2022-10-05T00:43:57.327Z,15.80
2022-10-05T00:46:31.516Z,15.80
2022-10-05T00:49:29.661Z,15.80
2022-10-05T00:52:24.274Z,15.80
2022-10-05T00:55:18.022Z,15.80
2022-10-05T00:58:15.658Z,15.80
2022-10-05T01:01:00.884Z,15.80
2022-10-05T01:03:51.708Z,15.90
2022-10-05T01:06:24.737Z,15.90
2022-10-05T01:09:12.992Z,15.80
2022-10-05T01:11:46.697Z,15.80
2022-10-05T01:18:10.957Z,16.00
2022-10-05T01:46:34.029Z,16.00
2022-10-05T01:52:43.451Z,16.00
2022-10-05T01:55:13.218Z,16.00
2022-10-05T01:57:53.077Z,16.00
2022-10-05T02:00:20.914Z,15.90
2022-10-05T02:02:58.850Z,15.90
2022-10-05T02:05:38.270Z,15.90
2022-10-05T02:08:14.865Z,15.90
2022-10-05T02:11:05.418Z,15.90
2022-10-05T02:13:44.200Z,16.00
2022-10-05T02:16:19.082Z,16.00
2022-10-05T02:18:52.997Z,15.90
2022-10-05T02:21:21.702Z,16.10
2022-10-05T02:23:52.304Z,15.90
2022-10-05T02:26:20.789Z,15.90
2022-10-05T02:28:55.484Z,15.90
2022-10-05T02:31:37.928Z,15.90
2022-10-05T02:34:27.154Z,15.90
2022-10-05T02:37:07.363Z,15.90
2022-10-05T02:40:02.200Z,15.90
2022-10-05T02:42:45.670Z,15.90
2022-10-05T02:45:45.424Z,15.80
2022-10-05T02:48:20.786Z,15.90
2022-10-05T02:51:05.184Z,15.80
2022-10-05T02:53:38.453Z,15.80
2022-10-05T02:56:11.381Z,15.80
2022-10-05T02:59:02.441Z,15.70
2022-10-05T03:01:49.491Z,15.80
2022-10-05T03:04:31.490Z,15.70
2022-10-05T03:07:09.275Z,15.70
2022-10-05T03:10:00.211Z,15.70
2022-10-05T03:12:40.595Z,15.60
2022-10-05T03:15:24.612Z,15.60
2022-10-05T03:18:09.587Z,15.60
2022-10-05T03:20:48.794Z,15.60
2022-10-05T03:23:35.897Z,15.60
2022-10-05T03:26:12.396Z,15.60
2022-10-05T03:29:02.391Z,15.60
2022-10-05T03:31:39.075Z,15.50
2022-10-05T03:34:19.993Z,15.50
2022-10-05T03:36:58.017Z,15.60
2022-10-05T03:39:30.967Z,15.50
2022-10-05T03:42:19.272Z,15.50
2022-10-05T03:44:55.453Z,15.50
2022-10-05T03:48:01.690Z,15.50
2022-10-05T03:50:52.097Z,15.50
2022-10-05T03:53:22.678Z,15.50
2022-10-05T03:55:54.384Z,15.50
2022-10-05T03:58:30.269Z,15.50
2022-10-05T04:01:05.822Z,15.50
2022-10-05T04:03:49.998Z,15.50
2022-10-05T04:06:29.793Z,15.50
2022-10-05T04:09:05.712Z,15.60
2022-10-05T04:11:52.036Z,15.60
2022-10-05T04:14:38.900Z,15.60
2022-10-05T04:17:13.352Z,15.60
2022-10-05T04:20:02.015Z,15.60
2022-10-05T04:23:02.511Z,15.60
2022-10-05T04:25:48.932Z,15.60
2022-10-05T04:28:38.334Z,15.70
2022-10-05T04:31:11.555Z,15.70
2022-10-05T04:33:38.562Z,15.60
2022-10-05T04:36:19.224Z,15.60
2022-10-05T04:39:07.224Z,15.60
2022-10-05T04:41:52.224Z,15.60
2022-10-05T04:44:45.000Z,15.60
2022-10-05T04:47:25.422Z,15.60
2022-10-05T04:49:55.331Z,15.70
2022-10-05T04:52:41.416Z,15.70
2022-10-05T04:55:29.380Z,15.70
2022-10-05T04:58:40.050Z,15.80
2022-10-05T05:01:24.266Z,15.80
2022-10-05T05:04:18.444Z,15.80
2022-10-05T05:07:16.798Z,15.80
2022-10-05T05:10:02.546Z,15.80
2022-10-05T05:12:43.121Z,15.80
2022-10-05T05:15:26.197Z,15.80
2022-10-05T05:18:25.069Z,15.80
2022-10-05T05:21:22.171Z,15.90
2022-10-05T05:24:33.545Z,15.90
2022-10-05T05:27:34.945Z,15.90
2022-10-05T05:30:05.026Z,15.90
2022-10-05T05:32:46.651Z,15.90
2022-10-05T05:35:35.470Z,15.90
2022-10-05T05:38:26.551Z,15.90
2022-10-05T05:41:00.663Z,16.00
2022-10-05T05:43:48.345Z,16.00
2022-10-05T05:47:01.896Z,15.90
2022-10-05T05:49:35.767Z,15.90
2022-10-05T05:52:14.409Z,16.00
2022-10-05T05:54:56.783Z,16.10
2022-10-05T05:57:27.173Z,15.90
2022-10-05T06:00:05.694Z,16.10
2022-10-05T06:02:57.125Z,16.10
2022-10-05T06:05:33.620Z,16.10
2022-10-05T06:08:13.479Z,16.10
2022-10-05T06:10:53.065Z,16.10
2022-10-05T06:13:34.945Z,16.10
2022-10-05T06:16:22.172Z,16.10
2022-10-05T06:18:57.792Z,16.10
2022-10-05T06:21:44.777Z,16.10
2022-10-05T06:24:41.229Z,16.10
2022-10-05T06:27:37.661Z,16.10
2022-10-05T06:30:15.501Z,16.10
2022-10-05T06:33:03.903Z,16.10
2022-10-05T06:35:49.429Z,16.10
2022-10-05T06:38:41.448Z,16.10
2022-10-05T06:41:13.619Z,16.10
2022-10-05T06:44:08.690Z,16.10
2022-10-05T06:47:44.574Z,16.10
2022-10-05T06:50:53.072Z,16.10
2022-10-05T06:53:44.470Z,16.10
2022-10-05T06:56:26.725Z,16.20
2022-10-05T06:59:19.144Z,16.20
2022-10-05T07:02:03.093Z,16.20
2022-10-05T07:04:39.298Z,16.20
2022-10-05T07:07:31.638Z,16.30
2022-10-05T07:10:30.753Z,16.30
2022-10-05T07:13:16.681Z,16.30
2022-10-05T07:16:21.930Z,16.30
2022-10-05T07:19:05.295Z,16.40
2022-10-05T07:21:34.581Z,16.40
2022-10-05T07:24:16.921Z,16.50
2022-10-05T07:26:50.522Z,16.50
2022-10-05T07:29:31.770Z,16.50
2022-10-05T07:32:15.171Z,16.60
2022-10-05T07:35:38.107Z,16.60
2022-10-05T07:38:25.025Z,16.60
2022-10-05T07:41:28.139Z,16.70
2022-10-05T07:44:23.216Z,16.80
2022-10-05T07:46:54.779Z,16.80
2022-10-05T07:49:29.048Z,16.90
2022-10-05T07:52:00.957Z,16.90
2022-10-05T07:54:47.678Z,17.00
2022-10-05T07:57:18.959Z,17.00
2022-10-05T08:00:17.972Z,17.10
2022-10-05T08:03:10.205Z,17.20
2022-10-05T08:05:42.277Z,17.20
2022-10-05T08:08:21.616Z,17.20
2022-10-05T08:11:02.100Z,17.30
2022-10-05T08:13:40.803Z,17.30
2022-10-05T08:16:15.225Z,17.50
2022-10-05T08:19:06.807Z,17.50
2022-10-05T08:21:40.176Z,17.60
2022-10-05T08:24:10.009Z,17.60
2022-10-05T08:26:44.137Z,17.70
2022-10-05T08:29:24.061Z,17.80
2022-10-05T08:31:57.841Z,17.90
2022-10-05T08:34:47.863Z,17.90
2022-10-05T08:37:27.366Z,17.90
2022-10-05T08:40:24.621Z,17.90
2022-10-05T08:43:16.840Z,17.80
2022-10-05T08:46:17.698Z,17.90
2022-10-05T08:49:11.229Z,17.90
2022-10-05T08:51:56.963Z,18.00
2022-10-05T08:54:45.670Z,18.00
2022-10-05T08:57:33.826Z,18.10
2022-10-05T09:00:20.466Z,18.20
2022-10-05T09:03:08.796Z,18.20
2022-10-05T09:05:47.464Z,18.30
2022-10-05T09:08:51.782Z,18.30
2022-10-05T09:11:32.245Z,18.40
2022-10-05T09:14:12.439Z,18.40
2022-10-05T09:16:45.578Z,18.50
2022-10-05T09:19:43.391Z,18.50
2022-10-05T09:22:39.625Z,18.50
2022-10-05T09:25:21.428Z,18.60
2022-10-05T09:28:11.830Z,18.70
2022-10-05T09:31:15.767Z,18.80
2022-10-05T09:33:57.080Z,18.80
2022-10-05T09:36:35.597Z,19.00
2022-10-05T09:39:33.192Z,19.10
2022-10-05T09:42:09.088Z,19.10
2022-10-05T09:44:54.631Z,19.20
2022-10-05T09:47:27.224Z,19.20
2022-10-05T09:50:23.545Z,19.40
2022-10-05T09:53:12.254Z,19.40
2022-10-05T09:55:51.349Z,19.60
2022-10-05T09:58:29.426Z,19.60
2022-10-05T10:01:09.453Z,19.70
2022-10-05T10:03:45.621Z,19.70
2022-10-05T10:06:49.096Z,19.80
2022-10-05T10:09:40.761Z,19.90
2022-10-05T10:12:10.639Z,20.10
2022-10-05T10:15:24.898Z,20.10
2022-10-05T10:18:40.963Z,20.10
2022-10-05T10:21:39.715Z,20.20
2022-10-05T10:24:35.468Z,20.30
2022-10-05T10:27:37.691Z,20.40
2022-10-05T10:30:27.587Z,20.40
2022-10-05T10:33:15.529Z,20.60
2022-10-05T10:36:04.469Z,20.60
2022-10-05T10:38:54.723Z,20.70
2022-10-05T10:41:40.550Z,20.90
2022-10-05T10:44:43.202Z,20.90
2022-10-05T10:47:13.293Z,21.00
2022-10-05T10:49:55.726Z,21.00
2022-10-05T10:52:22.570Z,21.10
2022-10-05T10:55:11.010Z,21.20
2022-10-05T10:57:46.313Z,21.30
2022-10-05T11:00:34.361Z,21.40
2022-10-05T11:03:12.569Z,21.40
2022-10-05T11:05:39.755Z,21.30
2022-10-05T11:08:39.560Z,21.30
2022-10-05T11:11:15.534Z,21.50
2022-10-05T11:14:10.492Z,21.40
2022-10-05T11:17:01.312Z,21.40
2022-10-05T11:20:02.895Z,21.50
2022-10-05T11:22:58.559Z,21.70
2022-10-05T11:25:50.248Z,21.70
2022-10-05T11:28:54.685Z,21.80
2022-10-05T11:31:51.280Z,21.90
2022-10-05T11:34:36.580Z,21.80
2022-10-05T11:37:36.375Z,21.90
2022-10-05T11:40:33.458Z,22.00
2022-10-05T11:43:08.997Z,21.90
2022-10-05T11:45:56.552Z,21.90
2022-10-05T11:48:44.825Z,21.90
2022-10-05T11:51:28.620Z,21.90
2022-10-05T11:54:52.157Z,22.00
2022-10-05T11:57:32.937Z,22.20
2022-10-05T12:00:13.016Z,22.40
2022-10-05T12:03:03.421Z,22.40
2022-10-05T12:05:43.826Z,22.40
2022-10-05T12:08:34.442Z,22.50
2022-10-05T12:11:43.418Z,22.60
2022-10-05T12:14:25.793Z,22.70
2022-10-05T12:17:22.185Z,22.70
2022-10-05T12:19:56.639Z,22.80
2022-10-05T12:22:37.178Z,22.90
2022-10-05T12:25:42.842Z,22.80
2022-10-05T12:28:15.383Z,22.90
2022-10-05T12:31:10.172Z,22.90
2022-10-05T12:34:12.478Z,23.00
2022-10-05T12:37:11.733Z,22.90
2022-10-05T12:39:38.836Z,23.10
2022-10-05T12:42:08.680Z,23.20
2022-10-05T12:44:43.074Z,23.30
2022-10-05T12:47:30.110Z,23.40
2022-10-05T12:50:39.247Z,23.30
2022-10-05T12:53:40.673Z,23.30
2022-10-05T12:56:07.645Z,23.30
2022-10-05T12:59:00.577Z,23.30
2022-10-05T13:01:48.089Z,23.30
2022-10-05T13:04:48.430Z,23.30
2022-10-05T13:07:57.056Z,23.30
2022-10-05T13:10:49.296Z,23.30
2022-10-05T13:16:38.514Z,23.20
2022-10-05T13:19:49.976Z,23.20
2022-10-05T13:22:34.636Z,23.10
2022-10-05T13:25:18.950Z,23.10
2022-10-05T13:28:01.832Z,23.00
2022-10-05T13:30:29.435Z,23.10
2022-10-05T13:33:02.649Z,23.10
2022-10-05T13:35:59.431Z,23.10
2022-10-05T13:38:26.439Z,23.10
2022-10-05T13:41:11.750Z,23.10
2022-10-05T13:43:55.529Z,23.00
2022-10-05T13:46:37.945Z,22.80
2022-10-05T13:49:14.020Z,22.70
2022-10-05T13:51:45.899Z,22.70
2022-10-05T13:54:45.993Z,22.70
2022-10-05T13:57:31.291Z,22.50
2022-10-05T14:00:06.754Z,22.50
2022-10-05T14:02:41.432Z,22.40
2022-10-05T14:05:19.287Z,22.30
2022-10-05T14:07:56.519Z,22.30
2022-10-05T14:10:35.379Z,22.30
2022-10-05T14:13:13.520Z,22.30
2022-10-05T14:15:42.365Z,22.20
2022-10-05T14:18:29.763Z,22.10
2022-10-05T14:21:08.911Z,22.10
2022-10-05T14:23:36.151Z,22.10
2022-10-05T14:26:04.537Z,22.00
2022-10-05T14:28:35.074Z,22.10
2022-10-05T14:31:26.629Z,22.20
2022-10-05T14:33:53.537Z,22.20
2022-10-05T14:36:44.313Z,22.30
2022-10-05T14:39:13.314Z,22.20
2022-10-05T14:41:49.199Z,22.10
2022-10-05T14:44:26.170Z,22.00
2022-10-05T14:47:02.825Z,21.90
2022-10-05T14:49:37.415Z,21.90
2022-10-05T14:52:59.392Z,21.80
2022-10-05T14:55:50.447Z,21.70
2022-10-05T14:58:55.617Z,21.40
2022-10-05T15:01:34.343Z,21.20
2022-10-05T15:04:25.972Z,21.20
2022-10-05T15:07:20.497Z,21.00
2022-10-05T15:10:15.442Z,21.00
2022-10-05T15:12:46.772Z,20.90
2022-10-05T15:15:35.461Z,20.80
2022-10-05T15:18:17.238Z,20.70
2022-10-05T15:20:56.288Z,20.60
2022-10-05T15:23:40.789Z,20.50
2022-10-05T15:26:25.846Z,20.50
2022-10-05T15:29:12.166Z,20.40
2022-10-05T15:32:31.276Z,20.40
2022-10-05T15:35:29.157Z,20.50
2022-10-05T15:38:21.390Z,20.70
2022-10-05T15:40:51.348Z,20.90
2022-10-05T15:43:21.714Z,21.00
2022-10-05T15:45:54.033Z,21.10
2022-10-05T15:48:45.836Z,21.00
2022-10-05T15:51:21.499Z,20.90
2022-10-05T15:54:17.349Z,20.70
2022-10-05T15:57:03.786Z,20.70
2022-10-05T15:59:37.542Z,20.50
2022-10-05T16:02:20.040Z,20.40
2022-10-05T16:05:41.410Z,20.40
2022-10-05T16:08:39.618Z,20.50
2022-10-05T16:11:18.970Z,20.40
2022-10-05T16:13:59.785Z,20.40
2022-10-05T16:16:45.812Z,20.40
2022-10-05T16:19:26.320Z,20.30
2022-10-05T16:22:16.724Z,20.20
2022-10-05T16:24:54.429Z,20.10
2022-10-05T16:27:40.474Z,20.20
2022-10-05T16:30:16.564Z,20.30
2022-10-05T16:33:06.880Z,20.30
2022-10-05T16:36:03.348Z,20.20
2022-10-05T16:38:45.646Z,20.20
2022-10-05T16:41:44.910Z,20.20
2022-10-05T16:44:26.938Z,20.30
2022-10-05T16:47:00.318Z,20.20
2022-10-05T16:49:45.667Z,20.20
2022-10-05T16:52:21.844Z,20.30
2022-10-05T16:54:57.452Z,20.20
2022-10-05T16:57:51.997Z,20.30
2022-10-05T17:00:41.864Z,20.40
2022-10-05T17:03:14.336Z,20.30
2022-10-05T17:06:16.003Z,20.30
2022-10-05T17:09:30.535Z,20.40
2022-10-05T17:12:26.809Z,20.30
2022-10-05T17:15:08.994Z,20.30
2022-10-05T17:17:47.642Z,20.20
2022-10-05T17:20:46.299Z,20.30
2022-10-05T17:23:32.907Z,20.20
2022-10-05T17:26:33.656Z,20.10
2022-10-05T17:29:11.959Z,20.20
2022-10-05T17:32:06.542Z,20.20
2022-10-05T17:34:36.337Z,20.20
2022-10-05T17:37:36.253Z,20.20
2022-10-05T17:40:35.593Z,20.20
2022-10-05T17:43:24.116Z,20.20
2022-10-05T17:45:55.328Z,20.10
2022-10-05T17:49:03.684Z,20.00
2022-10-05T17:51:49.989Z,20.10
2022-10-05T17:54:58.834Z,20.10
2022-10-05T17:57:28.310Z,20.10
2022-10-05T17:59:58.446Z,20.00
2022-10-05T18:02:40.558Z,20.10
2022-10-05T18:05:14.645Z,20.10
2022-10-05T18:07:47.204Z,20.10
2022-10-05T18:10:25.645Z,20.10
2022-10-05T18:13:02.139Z,20.10
2022-10-05T18:15:29.155Z,20.00
2022-10-05T18:18:32.792Z,20.10
2022-10-05T18:21:14.742Z,20.10
2022-10-05T18:23:59.922Z,20.10
2022-10-05T18:26:40.484Z,20.20
2022-10-05T18:30:04.976Z,20.10
2022-10-05T18:32:43.252Z,20.10
2022-10-05T18:35:48.723Z,20.10
2022-10-05T18:38:26.553Z,20.20
2022-10-05T18:41:10.155Z,20.10
2022-10-05T18:43:46.017Z,20.10
2022-10-05T18:46:34.495Z,20.10
2022-10-05T18:49:15.591Z,20.10
2022-10-05T18:52:08.445Z,20.20
2022-10-05T18:55:01.031Z,20.20
2022-10-05T18:57:31.576Z,20.10
2022-10-05T19:00:07.023Z,20.10
2022-10-05T19:02:43.512Z,20.10
2022-10-05T19:05:46.871Z,20.10
2022-10-05T19:08:36.110Z,20.20
2022-10-05T19:11:07.130Z,20.20
2022-10-05T19:13:49.012Z,20.10
2022-10-05T19:16:32.789Z,20.10
2022-10-05T19:19:09.796Z,20.10
2022-10-05T19:21:42.891Z,20.10
2022-10-05T19:24:31.287Z,20.10
2022-10-05T19:27:07.326Z,20.10
2022-10-05T19:29:53.293Z,20.10
2022-10-05T19:32:49.617Z,20.10
2022-10-05T19:35:44.210Z,20.20
2022-10-05T19:38:16.807Z,20.20
2022-10-05T19:41:14.354Z,20.10
2022-10-05T19:44:16.797Z,20.10
2022-10-05T19:47:02.127Z,20.20
2022-10-05T19:49:47.834Z,20.10
2022-10-05T19:52:37.739Z,20.10
2022-10-05T19:55:15.403Z,20.20
2022-10-05T19:57:55.319Z,20.20
2022-10-05T20:00:34.090Z,20.10
2022-10-05T20:03:27.652Z,20.00
2022-10-05T20:05:56.989Z,20.00
2022-10-05T20:08:27.264Z,20.00
2022-10-05T20:11:17.372Z,20.00
2022-10-05T20:13:57.484Z,20.10
2022-10-05T20:16:54.168Z,20.20
2022-10-05T20:19:52.493Z,20.20
2022-10-05T20:22:46.604Z,20.00
2022-10-05T20:25:19.868Z,19.80
2022-10-05T20:27:57.530Z,19.60
2022-10-05T20:30:27.518Z,19.40
2022-10-05T20:32:58.319Z,19.10
2022-10-05T20:35:33.595Z,18.90
2022-10-05T20:38:00.983Z,18.60
2022-10-05T20:40:29.900Z,18.40
2022-10-05T20:42:59.191Z,18.30
2022-10-05T20:45:26.625Z,18.20
2022-10-05T20:47:54.018Z,18.10
2022-10-05T20:50:22.399Z,18.10
2022-10-05T20:52:49.700Z,18.00
2022-10-05T20:55:16.615Z,18.00
2022-10-05T20:57:45.870Z,18.00
2022-10-05T21:00:13.717Z,18.00
2022-10-05T21:02:40.634Z,18.00
2022-10-05T21:05:08.097Z,18.00
2022-10-05T21:07:35.422Z,18.00
2022-10-05T21:10:03.868Z,18.00
2022-10-05T21:12:32.863Z,18.00
2022-10-05T21:14:59.876Z,18.00
2022-10-05T21:17:27.098Z,17.90
2022-10-05T21:19:53.970Z,17.90
2022-10-05T21:22:20.877Z,18.00
2022-10-05T21:24:47.954Z,18.10
2022-10-05T21:27:16.080Z,18.10
2022-10-05T21:29:44.135Z,18.10
2022-10-05T21:32:14.577Z,18.10
2022-10-05T21:34:41.934Z,18.10
2022-10-05T21:37:09.357Z,18.00
2022-10-05T21:39:37.532Z,18.10
2022-10-05T21:42:04.823Z,18.10
2022-10-05T21:44:31.800Z,18.10
2022-10-05T21:46:59.081Z,18.10
2022-10-05T21:49:27.059Z,18.10
2022-10-05T21:51:54.745Z,18.00
2022-10-05T21:54:22.832Z,18.00
2022-10-05T21:56:54.350Z,18.10
2022-10-05T21:59:24.689Z,18.00
2022-10-05T22:01:52.367Z,18.10
2022-10-05T22:04:19.730Z,18.10
2022-10-05T22:06:46.614Z,18.00
2022-10-05T22:09:13.498Z,18.20
2022-10-05T22:11:40.932Z,18.10
2022-10-05T22:14:08.139Z,18.10
2022-10-05T22:16:38.329Z,18.10
2022-10-05T22:19:07.278Z,18.00
2022-10-05T22:21:41.557Z,17.90
2022-10-05T22:24:11.284Z,17.80
2022-10-05T22:26:39.762Z,17.70
2022-10-05T22:29:06.969Z,17.60
2022-10-05T22:31:34.043Z,17.50
2022-10-05T22:34:01.016Z,17.40
2022-10-05T22:36:28.279Z,17.40
2022-10-05T22:38:55.239Z,17.40
2022-10-05T22:41:22.499Z,17.30
2022-10-05T22:43:50.930Z,17.30
2022-10-05T22:46:18.399Z,17.20
2022-10-05T22:48:45.401Z,17.20
2022-10-05T22:51:12.626Z,17.20
2022-10-05T22:53:39.760Z,17.20
2022-10-05T22:56:09.453Z,17.20
2022-10-05T22:58:37.135Z,17.20
2022-10-05T23:01:06.382Z,17.20
2022-10-05T23:03:34.178Z,17.20
2022-10-05T23:06:05.063Z,17.20
2022-10-05T23:08:33.346Z,17.30
2022-10-05T23:11:04.211Z,17.20
2022-10-05T23:13:32.392Z,17.20
2022-10-05T23:16:06.582Z,17.20
2022-10-05T23:18:33.981Z,17.10
2022-10-05T23:21:01.359Z,17.10
2022-10-05T23:23:28.676Z,17.10
2022-10-05T23:26:00.250Z,17.10
2022-10-05T23:28:28.997Z,17.10
2022-10-05T23:31:04.134Z,17.10
2022-10-05T23:33:31.641Z,17.00
2022-10-05T23:36:09.523Z,17.00
2022-10-05T23:38:36.824Z,17.00
2022-10-05T23:41:06.634Z,16.90
2022-10-05T23:43:34.880Z,16.90
2022-10-05T23:46:03.031Z,16.90
2022-10-05T23:48:31.830Z,16.80
2022-10-05T23:50:59.885Z,16.90
2022-10-05T23:53:27.173Z,16.80
2022-10-05T23:55:54.960Z,16.80
2022-10-05T23:58:22.840Z,16.90
